createdAt,value
2022-08-25T00:00:50.996Z,1.25
2022-08-25T00:01:55.452Z,1.00
2022-08-25T00:03:00.296Z,0.00
2022-08-25T00:04:05.479Z,1.00
2022-08-25T00:05:10.969Z,0.75
2022-08-25T00:06:14.887Z,1.00
2022-08-25T00:07:19.808Z,1.00
2022-08-25T00:08:23.985Z,0.00
2022-08-25T00:09:28.437Z,0.00
2022-08-25T00:10:32.556Z,0.00
2022-08-25T00:11:36.848Z,0.00
2022-08-25T00:12:41.461Z,0.00
2022-08-25T00:13:46.487Z,0.00
2022-08-25T00:14:50.604Z,1.00
2022-08-25T00:15:54.457Z,0.00
2022-08-25T00:16:58.688Z,0.00
2022-08-25T00:18:03.016Z,0.00
2022-08-25T00:19:07.408Z,0.50
2022-08-25T00:20:16.132Z,0.50
2022-08-25T00:21:20.539Z,0.25
2022-08-25T00:22:24.486Z,0.50
2022-08-25T00:23:28.287Z,1.00
2022-08-25T00:24:32.337Z,0.50
2022-08-25T00:25:36.229Z,0.75
2022-08-25T00:26:40.433Z,0.75
2022-08-25T00:27:46.674Z,0.50
2022-08-25T00:28:54.202Z,0.00
2022-08-25T00:29:59.193Z,0.00
2022-08-25T00:31:03.229Z,0.50
2022-08-25T00:32:07.299Z,0.50
2022-08-25T00:33:11.300Z,0.50
2022-08-25T00:34:15.401Z,0.00
2022-08-25T00:35:19.671Z,0.25
2022-08-25T00:36:23.606Z,0.25
2022-08-25T00:37:27.609Z,0.50
2022-08-25T00:38:31.741Z,1.00
2022-08-25T00:39:35.979Z,0.50
2022-08-25T00:40:40.066Z,0.00
2022-08-25T00:41:44.226Z,0.00
2022-08-25T00:42:48.538Z,0.00
2022-08-25T00:43:52.843Z,0.00
2022-08-25T00:44:57.746Z,0.00
2022-08-25T00:46:02.375Z,0.00
2022-08-25T00:47:06.486Z,0.50
2022-08-25T00:48:10.793Z,1.50
2022-08-25T00:49:25.090Z,0.00
2022-08-25T00:50:20.227Z,0.00
2022-08-25T00:51:24.332Z,0.00
2022-08-25T00:52:28.334Z,0.00
2022-08-25T00:53:32.438Z,0.00
2022-08-25T00:54:36.541Z,0.50
2022-08-25T00:55:40.544Z,0.50
2022-08-25T00:56:44.960Z,0.50
2022-08-25T00:57:49.276Z,0.00
2022-08-25T00:58:53.667Z,0.00
2022-08-25T00:59:57.897Z,0.00
2022-08-25T01:01:03.369Z,0.00
2022-08-25T01:02:07.927Z,0.00
2022-08-25T01:03:12.753Z,0.00
2022-08-25T01:04:16.747Z,0.50
2022-08-25T01:05:21.058Z,0.00
2022-08-25T01:06:25.161Z,0.50
2022-08-25T01:07:29.263Z,0.00
2022-08-25T01:08:33.467Z,0.00
2022-08-25T01:09:37.672Z,0.00
2022-08-25T01:10:41.672Z,0.00
2022-08-25T01:11:45.777Z,0.00
2022-08-25T01:12:49.879Z,0.00
2022-08-25T01:13:53.741Z,0.00
2022-08-25T01:14:57.677Z,0.00
2022-08-25T01:16:01.940Z,0.00
2022-08-25T01:17:05.990Z,0.00
2022-08-25T01:18:09.989Z,0.00
2022-08-25T01:19:15.407Z,0.00
2022-08-25T01:20:18.869Z,0.00
2022-08-25T01:21:22.869Z,0.00
2022-08-25T01:22:26.919Z,0.00
2022-08-25T01:23:31.019Z,0.00
2022-08-25T01:24:35.131Z,0.00
2022-08-25T01:25:38.971Z,0.00
2022-08-25T01:26:42.900Z,0.00
2022-08-25T01:27:46.819Z,0.00
2022-08-25T01:28:50.923Z,0.00
2022-08-25T01:29:55.025Z,0.00
2022-08-25T01:30:59.139Z,0.00
2022-08-25T01:32:03.138Z,0.00
2022-08-25T01:33:07.231Z,0.00
2022-08-25T01:34:11.339Z,0.00
2022-08-25T01:35:15.440Z,0.00
2022-08-25T01:36:19.541Z,0.00
2022-08-25T01:37:23.399Z,0.00
2022-08-25T01:38:27.443Z,0.00
2022-08-25T01:39:31.441Z,0.00
2022-08-25T01:40:35.444Z,0.00
2022-08-25T01:41:39.548Z,0.00
2022-08-25T01:42:43.459Z,0.50
2022-08-25T01:43:47.548Z,0.50
2022-08-25T01:44:51.651Z,0.00
2022-08-25T01:45:55.701Z,0.00
2022-08-25T01:46:59.761Z,0.00
2022-08-25T01:48:04.209Z,0.00
2022-08-25T01:49:08.779Z,0.00
2022-08-25T01:50:12.887Z,0.00
2022-08-25T01:51:17.091Z,0.00
2022-08-25T01:52:21.409Z,0.00
2022-08-25T01:53:25.598Z,0.00
2022-08-25T01:54:29.604Z,0.00
2022-08-25T01:55:34.016Z,0.00
2022-08-25T01:56:38.189Z,0.00
2022-08-25T01:57:42.293Z,0.00
2022-08-25T01:58:46.429Z,0.00
2022-08-25T01:59:50.632Z,0.00
2022-08-25T02:00:54.840Z,0.00
2022-08-25T02:01:59.898Z,0.00
2022-08-25T02:03:04.449Z,0.00
2022-08-25T02:04:09.710Z,0.00
2022-08-25T02:05:13.925Z,0.00
2022-08-25T02:06:18.120Z,0.00
2022-08-25T02:07:22.005Z,0.00
2022-08-25T02:08:26.024Z,0.00
2022-08-25T02:09:30.130Z,0.00
2022-08-25T02:10:34.227Z,0.00
2022-08-25T02:11:38.108Z,0.00
2022-08-25T02:12:42.045Z,0.00
2022-08-25T02:13:46.030Z,0.00
2022-08-25T02:14:50.231Z,0.00
2022-08-25T02:15:54.431Z,0.00
2022-08-25T02:16:58.676Z,0.00
2022-08-25T02:18:03.367Z,0.00
2022-08-25T02:19:07.469Z,0.00
2022-08-25T02:20:11.675Z,0.00
2022-08-25T02:21:15.576Z,0.00
2022-08-25T02:22:19.574Z,0.00
2022-08-25T02:23:23.676Z,0.00
2022-08-25T02:24:27.642Z,0.00
2022-08-25T02:25:31.480Z,0.00
2022-08-25T02:26:35.783Z,0.00
2022-08-25T02:27:39.987Z,0.00
2022-08-25T02:28:43.999Z,0.50
2022-08-25T02:29:48.399Z,0.50
2022-08-25T02:30:52.458Z,0.00
2022-08-25T02:31:57.833Z,0.00
2022-08-25T02:33:02.247Z,0.00
2022-08-25T02:34:06.655Z,0.00
2022-08-25T02:35:10.737Z,0.00
2022-08-25T02:36:14.760Z,0.25
2022-08-25T02:37:19.071Z,0.00
2022-08-25T02:38:23.171Z,0.00
2022-08-25T02:39:27.044Z,0.00
2022-08-25T02:40:31.132Z,0.00
2022-08-25T02:41:35.379Z,0.00
2022-08-25T02:42:39.584Z,0.00
2022-08-25T02:43:44.638Z,0.50
2022-08-25T02:44:48.616Z,1.25
2022-08-25T02:45:52.736Z,1.00
2022-08-25T02:46:56.921Z,0.50
2022-08-25T02:48:01.012Z,0.00
2022-08-25T02:49:05.048Z,0.00
2022-08-25T02:50:09.134Z,0.00
2022-08-25T02:51:13.086Z,0.00
2022-08-25T02:52:17.136Z,0.00
2022-08-25T02:53:21.254Z,0.00
2022-08-25T02:54:25.338Z,0.00
2022-08-25T02:55:29.351Z,0.00
2022-08-25T02:56:33.360Z,0.00
2022-08-25T02:57:37.341Z,0.00
2022-08-25T02:58:41.451Z,0.50
2022-08-25T02:59:45.546Z,0.75
2022-08-25T03:00:49.711Z,0.00
2022-08-25T03:01:53.669Z,1.00
2022-08-25T03:02:57.651Z,0.50
2022-08-25T03:04:01.757Z,0.00
2022-08-25T03:05:05.809Z,0.00
2022-08-25T03:06:09.859Z,0.00
2022-08-25T03:07:13.831Z,1.00
2022-08-25T03:08:18.843Z,0.00
2022-08-25T03:09:22.783Z,0.00
2022-08-25T03:10:26.988Z,0.00
2022-08-25T03:11:30.912Z,0.00
2022-08-25T03:12:35.208Z,0.00
2022-08-25T03:13:39.370Z,0.00
2022-08-25T03:14:43.514Z,0.00
2022-08-25T03:15:49.355Z,0.00
2022-08-25T03:16:53.303Z,0.00
2022-08-25T03:17:58.671Z,0.00
2022-08-25T03:19:03.685Z,0.00
2022-08-25T03:20:09.142Z,0.00
2022-08-25T03:21:13.453Z,0.50
2022-08-25T03:22:18.332Z,0.00
2022-08-25T03:23:22.478Z,1.00
2022-08-25T03:24:26.466Z,1.50
2022-08-25T03:25:30.582Z,1.00
2022-08-25T03:26:34.573Z,4.00
2022-08-25T03:27:38.790Z,3.50
2022-08-25T03:28:43.097Z,0.00
2022-08-25T03:29:47.302Z,0.75
2022-08-25T03:30:53.428Z,0.50
2022-08-25T03:31:56.521Z,0.00
2022-08-25T03:33:00.736Z,0.25
2022-08-25T03:34:05.073Z,0.00
2022-08-25T03:35:09.289Z,0.50
2022-08-25T03:36:13.567Z,0.25
2022-08-25T03:37:17.870Z,0.00
2022-08-25T03:38:21.976Z,0.75
2022-08-25T03:39:26.000Z,0.00
2022-08-25T03:40:29.945Z,0.00
2022-08-25T03:41:33.858Z,0.50
2022-08-25T03:42:37.875Z,1.00
2022-08-25T03:43:41.874Z,0.50
2022-08-25T03:44:45.876Z,0.67
2022-08-25T03:45:50.050Z,0.50
2022-08-25T03:46:53.990Z,0.00
2022-08-25T03:47:58.192Z,0.00
2022-08-25T03:49:02.103Z,0.00
2022-08-25T03:50:06.088Z,0.50
2022-08-25T03:51:10.189Z,0.50
2022-08-25T03:52:14.496Z,0.50
2022-08-25T03:53:18.804Z,0.00
2022-08-25T03:54:22.810Z,0.00
2022-08-25T03:55:26.911Z,0.00
2022-08-25T03:56:30.798Z,0.00
2022-08-25T03:57:34.808Z,0.25
2022-08-25T03:58:39.117Z,0.50
2022-08-25T03:59:43.324Z,0.00
2022-08-25T04:00:47.357Z,0.00
2022-08-25T04:01:54.795Z,0.00
2022-08-25T04:02:56.764Z,0.00
2022-08-25T04:04:01.068Z,0.50
2022-08-25T04:05:05.285Z,1.00
2022-08-25T04:06:09.796Z,1.00
2022-08-25T04:07:14.093Z,0.50
2022-08-25T04:08:18.196Z,0.50
2022-08-25T04:09:23.543Z,0.00
2022-08-25T04:10:27.634Z,0.00
2022-08-25T04:11:31.740Z,0.00
2022-08-25T04:12:36.150Z,0.00
2022-08-25T04:13:40.455Z,0.00
2022-08-25T04:14:44.666Z,0.00
2022-08-25T04:15:48.878Z,0.00
2022-08-25T04:16:52.878Z,0.00
2022-08-25T04:17:56.840Z,0.00
2022-08-25T04:19:01.405Z,0.00
2022-08-25T04:20:05.267Z,0.00
2022-08-25T04:21:09.200Z,0.00
2022-08-25T04:22:13.307Z,0.00
2022-08-25T04:23:17.136Z,0.00
2022-08-25T04:24:21.078Z,0.00
2022-08-25T04:25:25.188Z,0.00
2022-08-25T04:26:29.186Z,0.00
2022-08-25T04:27:33.389Z,0.00
2022-08-25T04:28:37.499Z,0.00
2022-08-25T04:29:41.380Z,0.00
2022-08-25T04:30:46.417Z,0.00
2022-08-25T04:31:50.411Z,0.00
2022-08-25T04:32:54.323Z,0.50
2022-08-25T04:33:58.275Z,0.00
2022-08-25T04:35:02.085Z,0.25
2022-08-25T04:36:10.042Z,0.00
2022-08-25T04:37:11.140Z,0.00
2022-08-25T04:38:15.143Z,0.00
2022-08-25T04:39:19.248Z,0.00
2022-08-25T04:40:23.829Z,0.00
2022-08-25T04:41:28.374Z,0.50
2022-08-25T04:42:32.378Z,0.00
2022-08-25T04:43:36.336Z,0.00
2022-08-25T04:44:40.276Z,0.00
2022-08-25T04:45:44.490Z,0.00
2022-08-25T04:46:48.482Z,0.00
2022-08-25T04:47:54.947Z,0.00
2022-08-25T04:48:57.816Z,0.00
2022-08-25T04:50:02.122Z,0.50
2022-08-25T04:51:06.226Z,0.00
2022-08-25T04:52:13.055Z,0.00
2022-08-25T04:53:15.458Z,0.00
2022-08-25T04:54:19.307Z,0.00
2022-08-25T04:55:23.458Z,0.00
2022-08-25T04:56:27.461Z,0.50
2022-08-25T04:57:31.566Z,0.25
2022-08-25T04:58:35.548Z,0.00
2022-08-25T04:59:39.567Z,0.00
2022-08-25T05:00:43.827Z,0.00
2022-08-25T05:01:50.210Z,0.00
2022-08-25T05:02:53.413Z,0.00
2022-08-25T05:03:57.682Z,0.00
2022-08-25T05:05:01.946Z,0.00
2022-08-25T05:06:06.034Z,0.00
2022-08-25T05:07:10.345Z,0.00
2022-08-25T05:08:14.444Z,0.00
2022-08-25T05:09:19.781Z,0.00
2022-08-25T05:10:23.728Z,0.00
2022-08-25T05:11:29.104Z,0.50
2022-08-25T05:12:33.210Z,0.00
2022-08-25T05:13:38.234Z,0.00
2022-08-25T05:14:42.333Z,0.00
2022-08-25T05:15:46.547Z,0.00
2022-08-25T05:16:50.733Z,0.50
2022-08-25T05:17:56.102Z,0.50
2022-08-25T05:18:59.982Z,0.00
2022-08-25T05:20:04.085Z,0.25
2022-08-25T05:21:08.086Z,0.00
2022-08-25T05:22:12.190Z,0.00
2022-08-25T05:23:16.047Z,0.00
2022-08-25T05:24:19.990Z,0.00
2022-08-25T05:25:23.988Z,0.00
2022-08-25T05:26:28.058Z,0.00
2022-08-25T05:27:32.092Z,0.00
2022-08-25T05:28:36.084Z,0.00
2022-08-25T05:29:39.983Z,0.00
2022-08-25T05:30:44.093Z,0.00
2022-08-25T05:31:50.602Z,0.00
2022-08-25T05:32:53.401Z,0.50
2022-08-25T05:33:57.394Z,0.00
2022-08-25T05:35:01.753Z,0.00
2022-08-25T05:36:05.943Z,0.00
2022-08-25T05:37:12.206Z,0.00
2022-08-25T05:38:15.562Z,0.00
2022-08-25T05:39:19.919Z,0.00
2022-08-25T05:40:24.052Z,0.00
2022-08-25T05:41:28.102Z,0.00
2022-08-25T05:42:32.201Z,0.00
2022-08-25T05:43:36.104Z,0.00
2022-08-25T05:44:40.008Z,0.00
2022-08-25T05:45:44.152Z,0.00
2022-08-25T05:46:48.006Z,0.00
2022-08-25T05:47:52.107Z,0.25
2022-08-25T05:48:56.114Z,0.50
2022-08-25T05:50:00.161Z,0.00
2022-08-25T05:51:04.109Z,0.50
2022-08-25T05:52:08.212Z,1.00
2022-08-25T05:53:12.113Z,0.50
2022-08-25T05:54:16.110Z,0.00
2022-08-25T05:55:20.211Z,0.00
2022-08-25T05:56:24.176Z,0.00
2022-08-25T05:57:28.222Z,0.00
2022-08-25T05:58:32.213Z,0.50
2022-08-25T05:59:36.320Z,0.00
2022-08-25T06:00:40.274Z,0.00
2022-08-25T06:01:47.091Z,0.00
2022-08-25T06:02:51.092Z,0.00
2022-08-25T06:03:55.414Z,0.00
2022-08-25T06:04:59.705Z,0.00
2022-08-25T06:06:03.913Z,0.00
2022-08-25T06:07:08.121Z,0.50
2022-08-25T06:08:12.426Z,0.00
2022-08-25T06:09:16.632Z,0.00
2022-08-25T06:10:20.584Z,0.00
2022-08-25T06:11:24.632Z,0.50
2022-08-25T06:12:28.641Z,0.00
2022-08-25T06:13:32.740Z,0.00
2022-08-25T06:14:36.733Z,0.25
2022-08-25T06:15:40.944Z,0.50
2022-08-25T06:16:44.972Z,0.00
2022-08-25T06:17:48.812Z,0.00
2022-08-25T06:18:52.622Z,0.00
2022-08-25T06:19:56.744Z,0.00
2022-08-25T06:21:00.866Z,0.50
2022-08-25T06:22:04.850Z,0.00
2022-08-25T06:23:09.055Z,0.50
2022-08-25T06:24:15.575Z,0.00
2022-08-25T06:25:18.284Z,0.00
2022-08-25T06:26:22.183Z,0.00
2022-08-25T06:27:26.293Z,0.00
2022-08-25T06:28:30.388Z,0.00
2022-08-25T06:29:34.502Z,0.00
2022-08-25T06:30:38.710Z,0.00
2022-08-25T06:31:42.985Z,0.00
2022-08-25T06:32:47.315Z,0.00
2022-08-25T06:33:51.631Z,0.00
2022-08-25T06:34:55.740Z,0.00
2022-08-25T06:35:59.908Z,0.00
2022-08-25T06:37:04.142Z,0.00
2022-08-25T06:38:08.447Z,0.50
2022-08-25T06:39:12.761Z,0.00
2022-08-25T06:40:16.926Z,0.50
2022-08-25T06:41:21.373Z,0.00
2022-08-25T06:42:25.328Z,0.00
2022-08-25T06:43:29.186Z,0.00
2022-08-25T06:44:33.168Z,0.00
2022-08-25T06:45:37.285Z,0.00
2022-08-25T06:46:41.435Z,0.00
2022-08-25T06:47:45.670Z,0.00
2022-08-25T06:48:49.992Z,0.00
2022-08-25T06:49:54.209Z,0.00
2022-08-25T06:50:58.402Z,0.00
2022-08-25T06:52:02.537Z,0.00
2022-08-25T06:53:06.615Z,0.00
2022-08-25T06:54:10.846Z,0.00
2022-08-25T06:55:15.133Z,0.00
2022-08-25T06:56:19.049Z,1.00
2022-08-25T06:57:23.543Z,0.50
2022-08-25T06:58:27.745Z,0.00
2022-08-25T06:59:32.494Z,0.00
2022-08-25T07:00:36.620Z,0.50
2022-08-25T07:01:40.866Z,0.00
2022-08-25T07:02:45.184Z,0.50
2022-08-25T07:03:49.962Z,0.25
2022-08-25T07:04:55.084Z,0.50
2022-08-25T07:05:59.131Z,0.50
2022-08-25T07:07:03.264Z,0.50
2022-08-25T07:08:07.339Z,1.00
2022-08-25T07:09:11.297Z,1.00
2022-08-25T07:10:15.243Z,0.00
2022-08-25T07:11:20.225Z,0.00
2022-08-25T07:12:24.018Z,0.00
2022-08-25T07:13:29.088Z,0.00
2022-08-25T07:14:33.797Z,0.00
2022-08-25T07:15:37.696Z,0.00
2022-08-25T07:16:42.420Z,0.00
2022-08-25T07:17:46.839Z,0.50
2022-08-25T07:18:50.921Z,0.00
2022-08-25T07:19:57.575Z,0.00
2022-08-25T07:21:00.263Z,0.00
2022-08-25T07:22:04.368Z,0.00
2022-08-25T07:23:08.531Z,0.00
2022-08-25T07:24:12.579Z,0.50
2022-08-25T07:25:17.872Z,0.00
2022-08-25T07:26:36.781Z,0.25
2022-08-25T07:27:26.724Z,0.00
2022-08-25T07:28:30.833Z,0.00
2022-08-25T07:29:34.932Z,0.50
2022-08-25T07:30:39.961Z,0.50
2022-08-25T07:31:44.104Z,0.00
2022-08-25T07:32:48.069Z,1.00
2022-08-25T07:33:53.296Z,0.75
2022-08-25T07:34:57.806Z,0.00
2022-08-25T07:36:02.219Z,0.50
2022-08-25T07:37:06.831Z,1.00
2022-08-25T07:38:12.964Z,1.00
2022-08-25T07:39:16.896Z,1.00
2022-08-25T07:40:20.959Z,1.00
2022-08-25T07:41:25.501Z,1.00
2022-08-25T07:42:29.498Z,0.75
2022-08-25T07:43:33.502Z,1.00
2022-08-25T07:44:38.637Z,1.00
2022-08-25T07:45:49.461Z,0.50
2022-08-25T07:46:48.031Z,0.75
2022-08-25T07:47:53.394Z,0.50
2022-08-25T07:48:57.606Z,0.00
2022-08-25T07:50:02.012Z,0.50
2022-08-25T07:52:12.301Z,1.00
2022-08-25T07:53:16.368Z,0.00
2022-08-25T07:54:20.272Z,0.00
2022-08-25T07:55:24.349Z,0.00
2022-08-25T07:56:28.275Z,1.00
2022-08-25T07:57:32.272Z,1.00
2022-08-25T07:58:36.577Z,1.50
2022-08-25T07:59:40.649Z,1.00
2022-08-25T08:00:44.893Z,1.00
2022-08-25T08:01:48.925Z,1.25
2022-08-25T08:02:53.001Z,0.75
2022-08-25T08:03:59.342Z,0.50
2022-08-25T08:05:02.429Z,0.00
2022-08-25T08:06:06.430Z,0.50
2022-08-25T08:07:12.117Z,1.00
2022-08-25T08:08:15.322Z,1.50
2022-08-25T08:09:19.353Z,1.75
2022-08-25T08:10:53.473Z,1.50
2022-08-25T08:11:28.193Z,1.50
2022-08-25T08:12:32.108Z,0.50
2022-08-25T08:13:40.802Z,1.50
2022-08-25T08:14:44.802Z,1.25
2022-08-25T08:15:47.106Z,1.00
2022-08-25T08:16:51.252Z,0.50
2022-08-25T08:17:55.258Z,0.75
2022-08-25T08:18:59.563Z,0.50
2022-08-25T08:20:03.724Z,1.50
2022-08-25T08:21:08.286Z,2.00
2022-08-25T08:22:13.110Z,1.50
2022-08-25T08:23:17.306Z,1.50
2022-08-25T08:24:44.367Z,1.50
2022-08-25T08:25:27.665Z,1.50
2022-08-25T08:26:55.373Z,1.75
2022-08-25T08:27:36.485Z,2.00
2022-08-25T08:28:40.586Z,2.00
2022-08-25T08:29:44.793Z,1.50
2022-08-25T08:30:53.627Z,2.00
2022-08-25T08:31:54.285Z,2.00
2022-08-25T08:33:13.240Z,2.00
2022-08-25T08:34:03.256Z,1.25
2022-08-25T08:35:07.009Z,2.50
2022-08-25T08:36:11.734Z,2.00
2022-08-25T08:37:16.704Z,2.00
2022-08-25T08:38:26.967Z,1.50
2022-08-25T08:39:25.820Z,2.25
2022-08-25T08:40:29.874Z,2.50
2022-08-25T08:41:40.118Z,3.00
2022-08-25T08:42:38.851Z,1.50
2022-08-25T08:43:42.848Z,1.25
2022-08-25T08:44:46.851Z,2.25
2022-08-25T08:45:50.852Z,2.00
2022-08-25T08:46:56.680Z,2.00
2022-08-25T08:48:00.033Z,1.25
2022-08-25T08:49:04.907Z,1.50
2022-08-25T08:50:08.903Z,1.50
2022-08-25T08:51:13.314Z,1.00
2022-08-25T08:52:17.315Z,1.00
2022-08-25T08:53:23.365Z,1.00
2022-08-25T08:54:27.221Z,2.00
2022-08-25T08:55:32.299Z,2.50
2022-08-25T08:56:36.709Z,3.25
2022-08-25T08:57:40.828Z,2.00
2022-08-25T08:58:44.908Z,3.00
2022-08-25T08:59:49.213Z,2.50
2022-08-25T09:00:53.326Z,2.00
2022-08-25T09:01:57.481Z,1.75
2022-08-25T09:03:01.443Z,2.00
2022-08-25T09:04:06.449Z,2.25
2022-08-25T09:05:10.821Z,2.00
2022-08-25T09:06:14.756Z,2.00
2022-08-25T09:07:18.779Z,2.00
2022-08-25T09:08:23.733Z,1.75
2022-08-25T09:09:28.907Z,2.00
2022-08-25T09:10:32.926Z,1.25
2022-08-25T09:11:37.122Z,2.00
2022-08-25T09:12:47.522Z,2.75
2022-08-25T09:13:46.976Z,2.75
2022-08-25T09:14:53.877Z,2.00
2022-08-25T09:15:57.546Z,2.25
2022-08-25T09:17:01.425Z,2.00
2022-08-25T09:18:06.659Z,3.25
2022-08-25T09:19:11.740Z,3.00
2022-08-25T09:20:19.055Z,3.00
2022-08-25T09:21:22.445Z,4.00
2022-08-25T09:22:35.568Z,6.25
2022-08-25T09:23:32.098Z,6.50
2022-08-25T09:24:36.187Z,7.00
2022-08-25T09:25:53.438Z,6.25
2022-08-25T09:26:46.239Z,7.50
2022-08-25T09:27:50.440Z,6.75
2022-08-25T09:28:55.181Z,6.50
2022-08-25T09:29:59.476Z,7.00
2022-08-25T09:31:03.814Z,11.00
2022-08-25T09:32:08.302Z,10.75
2022-08-25T09:33:12.527Z,8.25
2022-08-25T09:34:17.828Z,8.00
2022-08-25T09:35:22.247Z,8.25
2022-08-25T09:36:26.141Z,9.00
2022-08-25T09:37:30.343Z,7.00
2022-08-25T09:38:35.372Z,6.00
2022-08-25T09:39:39.157Z,5.25
2022-08-25T09:40:43.370Z,5.50
2022-08-25T09:41:47.680Z,5.50
2022-08-25T09:42:58.145Z,5.50
2022-08-25T09:43:58.137Z,6.25
2022-08-25T09:45:02.648Z,7.00
2022-08-25T09:46:06.949Z,6.50
2022-08-25T09:47:11.062Z,6.00
2022-08-25T09:48:15.247Z,6.50
2022-08-25T09:49:19.380Z,5.50
2022-08-25T09:50:24.399Z,6.50
2022-08-25T09:51:28.254Z,7.25
2022-08-25T09:52:33.222Z,7.00
2022-08-25T09:53:37.224Z,8.25
2022-08-25T09:54:46.738Z,7.00
2022-08-25T09:55:46.146Z,7.00
2022-08-25T09:56:50.143Z,6.00
2022-08-25T09:57:53.997Z,5.25
2022-08-25T09:59:02.433Z,3.50
2022-08-25T10:00:02.862Z,4.00
2022-08-25T10:01:07.044Z,3.50
2022-08-25T10:02:10.860Z,2.50
2022-08-25T10:03:16.096Z,2.00
2022-08-25T10:04:21.042Z,0.50
2022-08-25T10:05:25.455Z,1.50
2022-08-25T10:06:29.558Z,0.75
2022-08-25T10:07:33.943Z,1.00
2022-08-25T10:08:38.151Z,0.50
2022-08-25T10:09:43.380Z,0.00
2022-08-25T10:10:47.288Z,0.50
2022-08-25T10:11:51.481Z,1.00
2022-08-25T10:12:56.510Z,1.50
2022-08-25T10:14:00.815Z,1.50
2022-08-25T10:15:05.774Z,1.50
2022-08-25T10:16:20.284Z,0.50
2022-08-25T10:17:14.937Z,1.50
2022-08-25T10:18:18.973Z,1.50
2022-08-25T10:19:23.074Z,0.75
2022-08-25T10:20:26.871Z,2.50
2022-08-25T10:21:31.913Z,2.50
2022-08-25T10:22:36.008Z,2.00
2022-08-25T10:23:40.516Z,1.00
2022-08-25T10:24:45.944Z,1.25
2022-08-25T10:25:59.270Z,2.00
2022-08-25T10:26:55.515Z,2.00
2022-08-25T10:28:00.373Z,1.75
2022-08-25T10:29:04.613Z,2.00
2022-08-25T10:30:08.724Z,1.00
2022-08-25T10:31:13.109Z,2.50
2022-08-25T10:32:17.220Z,2.50
2022-08-25T10:33:21.400Z,2.00
2022-08-25T10:34:25.230Z,2.25
2022-08-25T10:35:29.350Z,1.25
2022-08-25T10:36:33.351Z,1.50
2022-08-25T10:37:37.439Z,2.00
2022-08-25T10:38:43.039Z,2.00
2022-08-25T10:39:46.423Z,2.00
2022-08-25T10:40:51.617Z,2.50
2022-08-25T10:41:55.796Z,1.50
2022-08-25T10:43:00.202Z,2.25
2022-08-25T10:44:04.426Z,3.50
2022-08-25T10:45:14.808Z,3.25
2022-08-25T10:46:16.752Z,4.00
2022-08-25T10:47:21.748Z,4.00
2022-08-25T10:48:26.328Z,3.25
2022-08-25T10:49:30.467Z,4.25
2022-08-25T10:50:34.314Z,5.00
2022-08-25T10:51:38.154Z,5.00
2022-08-25T10:52:42.160Z,4.50
2022-08-25T10:53:46.160Z,3.25
2022-08-25T10:54:51.186Z,5.00
2022-08-25T10:55:56.089Z,4.75
2022-08-25T10:57:01.670Z,6.00
2022-08-25T10:58:05.133Z,4.50
2022-08-25T10:59:10.068Z,3.50
2022-08-25T11:00:14.060Z,3.75
2022-08-25T11:01:18.211Z,4.00
2022-08-25T11:02:22.570Z,4.00
2022-08-25T11:03:26.804Z,5.00
2022-08-25T11:04:30.984Z,3.25
2022-08-25T11:05:35.077Z,4.00
2022-08-25T11:06:39.087Z,3.50
2022-08-25T11:07:43.528Z,4.50
2022-08-25T11:08:47.915Z,4.50
2022-08-25T11:09:52.224Z,6.00
2022-08-25T11:10:57.243Z,5.00
2022-08-25T11:12:01.448Z,4.50
2022-08-25T11:13:05.680Z,5.00
2022-08-25T11:14:11.233Z,6.00
2022-08-25T11:15:15.087Z,6.00
2022-08-25T11:16:19.726Z,4.75
2022-08-25T11:17:24.112Z,4.25
2022-08-25T11:18:28.993Z,6.00
2022-08-25T11:19:33.834Z,6.00
2022-08-25T11:20:37.754Z,5.25
2022-08-25T11:21:41.968Z,5.00
2022-08-25T11:22:45.961Z,5.00
2022-08-25T11:23:49.963Z,6.00
2022-08-25T11:24:54.169Z,5.50
2022-08-25T11:25:58.477Z,5.50
2022-08-25T11:27:02.283Z,6.00
2022-08-25T11:28:06.476Z,4.50
2022-08-25T11:29:12.081Z,5.50
2022-08-25T11:30:16.017Z,6.00
2022-08-25T11:31:19.849Z,6.50
2022-08-25T11:32:23.757Z,6.00
2022-08-25T11:33:27.631Z,5.00
2022-08-25T11:34:31.827Z,5.00
2022-08-25T11:35:36.227Z,6.00
2022-08-25T11:36:41.252Z,6.00
2022-08-25T11:37:45.164Z,5.75
2022-08-25T11:38:49.161Z,6.25
2022-08-25T11:39:53.199Z,6.50
2022-08-25T11:40:57.052Z,5.00
2022-08-25T11:42:01.050Z,4.75
2022-08-25T11:43:05.052Z,4.75
2022-08-25T11:44:10.074Z,6.00
2022-08-25T11:45:15.219Z,5.50
2022-08-25T11:46:19.612Z,6.25
2022-08-25T11:47:23.419Z,4.50
2022-08-25T11:48:27.309Z,5.50
2022-08-25T11:49:31.410Z,5.75
2022-08-25T11:50:35.368Z,5.50
2022-08-25T11:51:40.342Z,5.25
2022-08-25T11:52:44.248Z,5.00
2022-08-25T11:53:48.445Z,4.00
2022-08-25T11:54:53.188Z,4.50
2022-08-25T11:55:57.056Z,4.50
2022-08-25T11:57:00.962Z,3.50
2022-08-25T11:58:06.170Z,3.50
2022-08-25T11:59:10.701Z,4.50
2022-08-25T12:00:14.996Z,5.50
2022-08-25T12:01:19.631Z,3.75
2022-08-25T12:02:24.240Z,4.00
2022-08-25T12:03:29.063Z,3.25
2022-08-25T12:04:33.393Z,4.00
2022-08-25T12:05:37.419Z,3.00
2022-08-25T12:06:41.370Z,4.00
2022-08-25T12:07:45.578Z,4.00
2022-08-25T12:08:50.807Z,4.00
2022-08-25T12:09:55.019Z,3.00
2022-08-25T12:10:59.295Z,3.50
2022-08-25T12:12:03.733Z,3.50
2022-08-25T12:13:10.560Z,4.00
2022-08-25T12:14:13.988Z,3.50
2022-08-25T12:15:18.294Z,3.50
2022-08-25T12:16:22.216Z,3.50
2022-08-25T12:17:26.400Z,3.00
2022-08-25T12:18:30.293Z,3.00
2022-08-25T12:19:34.507Z,4.00
2022-08-25T12:20:38.620Z,4.50
2022-08-25T12:21:42.710Z,5.50
2022-08-25T12:22:47.028Z,5.50
2022-08-25T12:23:53.362Z,4.50
2022-08-25T12:24:57.490Z,4.75
2022-08-25T12:26:01.586Z,4.00
2022-08-25T12:27:06.795Z,4.00
2022-08-25T12:28:10.709Z,5.00
2022-08-25T12:29:14.808Z,5.00
2022-08-25T12:30:20.923Z,4.50
2022-08-25T12:31:24.096Z,3.75
2022-08-25T12:32:27.940Z,4.00
2022-08-25T12:33:32.250Z,5.25
2022-08-25T12:34:36.248Z,5.75
2022-08-25T12:35:40.177Z,4.00
2022-08-25T12:36:45.377Z,4.75
2022-08-25T12:37:49.278Z,3.75
2022-08-25T12:38:53.131Z,5.50
2022-08-25T12:39:58.824Z,4.50
2022-08-25T12:41:02.817Z,4.00
2022-08-25T12:42:06.773Z,5.00
2022-08-25T12:43:10.822Z,5.00
2022-08-25T12:44:14.819Z,5.50
2022-08-25T12:45:18.820Z,4.75
2022-08-25T12:46:23.908Z,3.50
2022-08-25T12:47:27.807Z,4.50
2022-08-25T12:48:31.646Z,5.00
2022-08-25T12:49:35.745Z,5.00
2022-08-25T12:50:39.499Z,5.00
2022-08-25T12:51:48.450Z,6.00
2022-08-25T12:52:51.293Z,6.00
2022-08-25T12:53:55.229Z,5.00
2022-08-25T12:54:59.236Z,5.00
2022-08-25T12:56:03.021Z,5.75
2022-08-25T12:57:06.826Z,5.00
2022-08-25T12:58:10.624Z,4.00
2022-08-25T12:59:14.518Z,4.25
2022-08-25T13:00:18.733Z,5.00
2022-08-25T13:01:35.718Z,5.25
2022-08-25T13:02:27.704Z,5.00
2022-08-25T13:03:32.778Z,5.50
2022-08-25T13:04:36.677Z,4.75
2022-08-25T13:05:40.560Z,3.75
2022-08-25T13:06:44.380Z,4.50
2022-08-25T13:07:49.417Z,4.50
2022-08-25T13:08:53.278Z,5.00
2022-08-25T13:09:58.333Z,4.50
2022-08-25T13:11:02.323Z,4.50
2022-08-25T13:12:06.313Z,5.00
2022-08-25T13:13:10.130Z,5.00
2022-08-25T13:14:14.440Z,4.50
2022-08-25T13:15:18.428Z,5.75
2022-08-25T13:16:25.615Z,6.25
2022-08-25T13:17:27.338Z,7.00
2022-08-25T13:18:32.549Z,6.00
2022-08-25T13:19:36.380Z,3.50
2022-08-25T13:20:40.182Z,5.00
2022-08-25T13:21:45.720Z,5.25
2022-08-25T13:22:51.849Z,4.50
2022-08-25T13:25:00.363Z,6.00
2022-08-25T13:26:04.493Z,5.00
2022-08-25T13:27:08.588Z,3.50
2022-08-25T13:28:13.006Z,4.25
2022-08-25T13:29:17.707Z,6.00
2022-08-25T13:30:22.020Z,6.50
2022-08-25T13:31:26.302Z,5.50
2022-08-25T13:32:30.124Z,3.50
2022-08-25T13:33:35.248Z,4.50
2022-08-25T13:34:42.715Z,5.50
2022-08-25T13:35:45.003Z,5.50
2022-08-25T13:36:54.112Z,5.50
2022-08-25T13:37:55.358Z,5.00
2022-08-25T13:38:59.251Z,4.00
2022-08-25T13:41:23.336Z,3.75
2022-08-25T13:42:29.092Z,4.00
2022-08-25T13:43:33.589Z,5.00
2022-08-25T13:44:37.337Z,4.00
2022-08-25T13:45:41.795Z,3.50
2022-08-25T13:46:46.202Z,3.50
2022-08-25T13:47:50.310Z,3.50
2022-08-25T13:48:55.428Z,3.25
2022-08-25T13:50:00.367Z,3.50
2022-08-25T13:51:04.263Z,3.00
2022-08-25T13:52:08.155Z,4.00
2022-08-25T13:53:12.456Z,3.50
2022-08-25T13:54:16.345Z,4.50
2022-08-25T13:55:20.985Z,5.00
2022-08-25T13:56:24.737Z,5.00
2022-08-25T13:57:30.312Z,4.00
2022-08-25T13:58:44.687Z,3.50
2022-08-25T13:59:40.164Z,4.00
2022-08-25T14:00:44.269Z,4.50
2022-08-25T14:01:50.121Z,4.00
2022-08-25T14:02:54.446Z,4.00
2022-08-25T14:04:01.174Z,4.00
2022-08-25T14:05:03.435Z,4.00
2022-08-25T14:06:08.573Z,4.00
2022-08-25T14:07:12.316Z,4.50
2022-08-25T14:08:25.482Z,4.25
2022-08-25T14:09:28.209Z,4.75
2022-08-25T14:10:26.057Z,4.50
2022-08-25T14:11:30.821Z,3.00
2022-08-25T14:12:34.724Z,4.00
2022-08-25T14:13:38.621Z,3.25
2022-08-25T14:14:43.653Z,3.00
2022-08-25T14:15:47.541Z,5.00
2022-08-25T14:16:51.674Z,4.00
2022-08-25T14:17:56.675Z,4.50
2022-08-25T14:19:00.873Z,5.00
2022-08-25T14:20:05.590Z,3.50